createdAt,value
2018-07-22T00:00:56.920Z,9.47
2018-07-22T00:03:25.192Z,10.67
2018-07-22T00:05:54.319Z,10.30
2018-07-22T00:08:23.043Z,9.57
2018-07-22T00:10:51.779Z,9.90
2018-07-22T00:13:20.810Z,9.77
2018-07-22T00:15:50.004Z,10.00
2018-07-22T00:18:18.815Z,9.50
2018-07-22T00:20:50.225Z,9.97
2018-07-22T00:23:18.705Z,10.30
2018-07-22T00:25:46.950Z,11.10
2018-07-22T00:28:18.118Z,9.47
2018-07-22T00:30:48.164Z,10.27
2018-07-22T00:33:16.393Z,9.27
2018-07-22T00:35:49.989Z,10.80
2018-07-22T00:38:20.763Z,9.60
2018-07-22T00:40:49.499Z,9.93
2018-07-22T00:43:18.339Z,10.10
2018-07-22T00:45:46.611Z,8.80
2018-07-22T00:48:16.060Z,10.00
2018-07-22T00:50:44.429Z,9.07
2018-07-22T00:53:12.876Z,9.30
2018-07-22T00:55:42.886Z,9.47
2018-07-22T00:58:11.503Z,10.03
2018-07-22T01:00:41.019Z,10.03
2018-07-22T01:03:10.694Z,11.07
2018-07-22T01:05:39.845Z,10.17
2018-07-22T01:08:10.611Z,10.77
2018-07-22T01:10:39.599Z,9.73
2018-07-22T01:13:08.736Z,12.00
2018-07-22T01:15:37.600Z,11.00
2018-07-22T01:18:05.895Z,11.33
2018-07-22T01:20:35.839Z,9.70
2018-07-22T01:23:04.881Z,10.30
2018-07-22T01:25:34.132Z,9.80
2018-07-22T01:28:04.063Z,10.30
2018-07-22T01:30:32.958Z,11.33
2018-07-22T01:33:02.865Z,11.20
2018-07-22T01:35:34.342Z,11.57
2018-07-22T01:38:03.271Z,11.77
2018-07-22T01:40:31.258Z,11.00
2018-07-22T01:42:59.483Z,11.20
2018-07-22T01:45:29.802Z,11.83
2018-07-22T01:47:58.623Z,12.97
2018-07-22T01:50:28.083Z,11.30
2018-07-22T01:52:57.294Z,11.80
2018-07-22T01:55:26.671Z,13.03
2018-07-22T01:57:55.169Z,10.50
2018-07-22T02:00:25.530Z,11.20
2018-07-22T02:02:54.234Z,11.50
2018-07-22T02:05:22.487Z,12.27
2018-07-22T02:07:51.781Z,12.40
2018-07-22T02:10:23.263Z,13.10
2018-07-22T02:12:52.535Z,12.80
2018-07-22T02:15:26.450Z,12.73
2018-07-22T02:17:56.531Z,13.60
2018-07-22T02:20:24.810Z,13.67
2018-07-22T02:22:53.902Z,14.13
2018-07-22T02:25:22.222Z,15.93
2018-07-22T02:27:51.455Z,13.70
2018-07-22T02:30:20.682Z,15.50
2018-07-22T02:32:51.492Z,13.67
2018-07-22T02:35:20.408Z,14.27
2018-07-22T02:37:49.590Z,14.70
2018-07-22T02:40:18.899Z,14.03
2018-07-22T02:42:47.737Z,15.37
2018-07-22T02:45:16.943Z,16.30
2018-07-22T02:47:46.243Z,16.00
2018-07-22T02:50:15.194Z,16.70
2018-07-22T02:52:44.878Z,14.87
2018-07-22T02:55:16.079Z,15.17
2018-07-22T02:57:44.782Z,15.30
2018-07-22T03:00:16.001Z,15.40
2018-07-22T03:02:45.476Z,16.27
2018-07-22T03:05:14.239Z,14.37
2018-07-22T03:07:46.887Z,13.70
2018-07-22T03:10:17.341Z,16.30
2018-07-22T03:12:50.542Z,16.90
2018-07-22T03:15:18.789Z,14.17
2018-07-22T03:17:47.306Z,16.40
2018-07-22T03:20:22.567Z,16.07
2018-07-22T03:22:51.702Z,16.50
2018-07-22T03:25:20.517Z,17.13
2018-07-22T03:27:51.055Z,15.67
2018-07-22T03:30:22.652Z,17.17
2018-07-22T03:32:51.983Z,17.17
2018-07-22T03:35:20.493Z,14.77
2018-07-22T03:37:49.117Z,16.30
2018-07-22T03:40:18.486Z,16.13
2018-07-22T03:42:47.044Z,15.80
2018-07-22T03:45:16.517Z,15.20
2018-07-22T03:47:46.672Z,14.80
2018-07-22T03:50:16.702Z,14.67
2018-07-22T03:52:45.346Z,15.30
2018-07-22T03:55:17.034Z,15.20
2018-07-22T03:57:45.290Z,15.10
2018-07-22T04:00:14.783Z,14.40
2018-07-22T04:02:43.958Z,15.50
2018-07-22T04:05:15.205Z,14.07
2018-07-22T04:07:45.154Z,14.00
2018-07-22T04:10:13.734Z,14.80
2018-07-22T04:12:43.082Z,14.10
2018-07-22T04:15:11.346Z,13.40
2018-07-22T04:17:40.379Z,13.57
2018-07-22T04:20:08.558Z,14.50
2018-07-22T04:22:37.579Z,12.03
2018-07-22T04:25:07.082Z,13.23
2018-07-22T04:27:35.299Z,13.70
2018-07-22T04:30:04.986Z,12.47
2018-07-22T04:32:33.782Z,12.00
2018-07-22T04:35:05.293Z,13.40
2018-07-22T04:37:34.759Z,11.57
2018-07-22T04:40:04.907Z,11.57
2018-07-22T04:42:33.970Z,11.40
2018-07-22T04:45:03.129Z,11.93
2018-07-22T04:47:31.381Z,11.43
2018-07-22T04:50:00.864Z,10.70
2018-07-22T04:52:30.879Z,11.37
2018-07-22T04:55:00.346Z,10.83
2018-07-22T04:57:29.013Z,10.90
2018-07-22T04:59:58.946Z,11.47
2018-07-22T05:02:30.419Z,10.07
2018-07-22T05:05:00.407Z,11.13
2018-07-22T05:07:29.983Z,11.33
2018-07-22T05:09:57.941Z,11.73
2018-07-22T05:12:26.615Z,11.50
2018-07-22T05:14:55.570Z,11.77
2018-07-22T05:17:23.794Z,11.17
2018-07-22T05:19:52.935Z,10.73
2018-07-22T05:22:24.079Z,13.07
2018-07-22T05:24:52.359Z,10.83
2018-07-22T05:27:21.225Z,12.03
2018-07-22T05:29:50.211Z,11.90
2018-07-22T05:32:18.423Z,12.43
2018-07-22T05:34:46.741Z,12.73
2018-07-22T05:37:17.063Z,12.47
2018-07-22T05:39:46.286Z,13.53
2018-07-22T05:42:15.008Z,13.00
2018-07-22T05:44:43.214Z,13.17
2018-07-22T05:47:13.519Z,13.80
2018-07-22T05:49:43.485Z,14.50
2018-07-22T05:52:13.732Z,12.70
2018-07-22T05:54:42.949Z,14.07
2018-07-22T05:57:13.204Z,14.50
2018-07-22T05:59:41.625Z,14.80
2018-07-22T06:02:10.720Z,13.93
2018-07-22T06:04:40.094Z,13.77
2018-07-22T06:07:09.895Z,15.70
2018-07-22T06:09:38.124Z,15.60
2018-07-22T06:12:07.069Z,14.17
2018-07-22T06:14:36.167Z,14.27
2018-07-22T06:17:04.672Z,16.27
2018-07-22T06:19:32.902Z,17.27
2018-07-22T06:22:01.787Z,15.50
2018-07-22T06:24:32.087Z,16.53
2018-07-22T06:27:01.545Z,15.97
2018-07-22T06:29:31.159Z,14.30
2018-07-22T06:32:01.388Z,15.80
2018-07-22T06:34:29.685Z,17.20
2018-07-22T06:36:59.211Z,15.13
2018-07-22T06:39:28.472Z,17.27
2018-07-22T06:41:57.535Z,17.87
2018-07-22T06:44:26.854Z,15.90
2018-07-22T06:46:56.064Z,15.67
2018-07-22T06:49:24.827Z,17.20
2018-07-22T06:51:53.677Z,19.10
2018-07-22T06:54:22.750Z,17.30
2018-07-22T06:56:54.085Z,15.33
2018-07-22T06:59:24.069Z,15.47
2018-07-22T07:01:53.513Z,16.33
2018-07-22T07:04:21.813Z,15.57
2018-07-22T07:10:56.740Z,18.70
2018-07-22T07:13:26.456Z,18.00
2018-07-22T07:15:57.484Z,15.07
2018-07-22T07:18:27.344Z,16.73
2018-07-22T07:20:57.056Z,16.50
2018-07-22T07:23:26.062Z,16.00
2018-07-22T07:25:54.251Z,15.70
2018-07-22T07:28:22.938Z,17.93
2018-07-22T07:30:53.316Z,16.90
2018-07-22T07:33:21.966Z,16.30
2018-07-22T07:35:50.711Z,16.33
2018-07-22T07:38:19.926Z,16.00
2018-07-22T07:40:48.642Z,17.93
2018-07-22T07:43:17.098Z,14.77
2018-07-22T07:45:45.359Z,16.10
2018-07-22T07:48:14.289Z,16.77
2018-07-22T07:50:43.645Z,13.53
2018-07-22T07:53:12.004Z,14.60
2018-07-22T07:55:40.353Z,14.67
2018-07-22T07:58:08.566Z,15.30
2018-07-22T08:00:37.792Z,16.67
2018-07-22T08:03:06.439Z,15.30
2018-07-22T08:05:38.313Z,16.27
2018-07-22T08:08:07.631Z,16.00
2018-07-22T08:10:36.562Z,14.50
2018-07-22T08:13:05.458Z,15.97
2018-07-22T08:15:35.918Z,14.10
2018-07-22T08:18:05.206Z,15.00
2018-07-22T08:20:34.796Z,14.20
2018-07-22T08:23:04.915Z,13.00
2018-07-22T08:25:35.226Z,13.00
2018-07-22T08:28:06.383Z,11.87
2018-07-22T08:30:36.913Z,11.80
2018-07-22T08:33:05.663Z,14.37
2018-07-22T08:35:36.819Z,13.00
2018-07-22T08:38:05.962Z,12.50
2018-07-22T08:40:36.170Z,11.50
2018-07-22T08:43:06.288Z,12.97
2018-07-22T08:45:36.530Z,13.40
2018-07-22T08:48:06.468Z,12.67
2018-07-22T08:50:34.662Z,9.60
2018-07-22T08:53:03.538Z,12.23
2018-07-22T08:55:32.798Z,10.77
2018-07-22T08:58:02.505Z,12.20
2018-07-22T09:00:30.699Z,12.10
2018-07-22T09:02:58.907Z,11.60
2018-07-22T09:05:29.333Z,12.17
2018-07-22T09:07:58.425Z,11.47
2018-07-22T09:10:28.400Z,11.07
2018-07-22T09:12:57.702Z,12.00
2018-07-22T09:15:27.033Z,10.00
2018-07-22T09:17:55.328Z,9.97
2018-07-22T09:20:23.882Z,12.30
2018-07-22T09:22:52.588Z,7.87
2018-07-22T09:25:22.398Z,10.10
2018-07-22T09:27:54.637Z,10.25
2018-07-22T09:30:25.573Z,10.73
2018-07-22T09:32:53.791Z,9.80
2018-07-22T09:35:22.703Z,10.77
2018-07-22T09:37:52.356Z,9.60
2018-07-22T09:40:22.602Z,9.00
2018-07-22T09:42:54.280Z,7.83
2018-07-22T09:45:23.736Z,9.20
2018-07-22T09:47:52.515Z,7.80
2018-07-22T09:50:24.484Z,7.57
2018-07-22T09:52:53.762Z,7.40
2018-07-22T09:55:23.687Z,7.00
2018-07-22T09:57:52.365Z,6.50
2018-07-22T10:00:26.438Z,8.33
2018-07-22T10:02:55.615Z,8.03
2018-07-22T10:05:23.867Z,8.13
2018-07-22T10:07:52.589Z,6.93
2018-07-22T10:10:23.077Z,7.40
2018-07-22T10:12:51.630Z,7.20
2018-07-22T10:15:23.067Z,7.30
2018-07-22T10:17:52.243Z,6.83
2018-07-22T10:20:20.470Z,7.33
2018-07-22T10:22:49.939Z,7.10
2018-07-22T10:25:18.958Z,7.57
2018-07-22T10:27:48.017Z,6.73
2018-07-22T10:30:16.217Z,7.53
2018-07-22T10:32:44.448Z,6.43
2018-07-22T10:35:12.660Z,7.27
2018-07-22T10:37:42.130Z,7.60
2018-07-22T10:40:12.158Z,7.40
2018-07-22T10:42:40.359Z,8.47
2018-07-22T10:45:10.067Z,7.27
2018-07-22T10:47:38.804Z,6.60
2018-07-22T10:50:08.142Z,7.87
2018-07-22T10:52:36.383Z,7.10
2018-07-22T10:55:05.977Z,6.87
2018-07-22T10:57:36.444Z,7.50
2018-07-22T11:00:07.138Z,8.17
2018-07-22T11:02:35.761Z,8.20
2018-07-22T11:05:05.970Z,7.60
2018-07-22T11:07:39.134Z,6.63
2018-07-22T11:10:07.555Z,6.90
2018-07-22T11:12:36.002Z,6.70
2018-07-22T11:15:05.807Z,5.33
2018-07-22T11:17:35.731Z,7.43
2018-07-22T11:20:04.704Z,7.00
2018-07-22T11:22:34.374Z,6.77
2018-07-22T11:25:04.178Z,6.10
2018-07-22T11:27:33.016Z,6.10
2018-07-22T11:30:02.713Z,6.13
2018-07-22T11:32:31.714Z,6.10
2018-07-22T11:35:01.035Z,4.53
2018-07-22T11:37:29.855Z,6.00
2018-07-22T11:39:58.742Z,6.40
2018-07-22T11:42:28.048Z,6.67
2018-07-22T11:44:56.271Z,7.13
2018-07-22T11:47:25.180Z,6.20
2018-07-22T11:49:54.826Z,6.77
2018-07-22T11:52:23.942Z,7.47
2018-07-22T11:54:53.537Z,5.70
2018-07-22T11:57:22.072Z,6.67
2018-07-22T11:59:52.130Z,5.77
2018-07-22T12:02:20.380Z,6.20
2018-07-22T12:04:49.250Z,6.23
2018-07-22T12:07:18.440Z,6.30
2018-07-22T12:09:48.880Z,6.33
2018-07-22T12:12:17.150Z,6.10
2018-07-22T12:14:52.823Z,3.97
2018-07-22T12:17:22.516Z,5.13
2018-07-22T12:19:51.150Z,5.87
2018-07-22T12:22:19.367Z,6.17
2018-07-22T12:24:48.118Z,6.00
2018-07-22T12:27:19.102Z,6.17
2018-07-22T12:29:48.774Z,5.97
2018-07-22T12:32:16.975Z,6.50
2018-07-22T12:34:47.738Z,4.90
2018-07-22T12:37:16.717Z,5.80
2018-07-22T12:39:44.765Z,4.77
2018-07-22T12:42:13.321Z,6.03
2018-07-22T12:44:43.720Z,6.07
2018-07-22T12:47:14.016Z,6.80
2018-07-22T12:49:42.871Z,6.30
2018-07-22T12:52:12.522Z,5.37
2018-07-22T12:54:42.269Z,6.77
2018-07-22T12:57:10.784Z,6.10
2018-07-22T12:59:40.872Z,6.67
2018-07-22T13:02:10.319Z,6.70
2018-07-22T13:04:40.116Z,7.00
2018-07-22T13:07:09.327Z,7.10
2018-07-22T13:09:38.646Z,6.73
2018-07-22T13:12:07.687Z,6.30
2018-07-22T13:14:36.582Z,4.90
2018-07-22T13:17:05.115Z,6.50
2018-07-22T13:19:33.761Z,6.30
2018-07-22T13:22:01.965Z,6.97
2018-07-22T13:24:33.086Z,5.80
2018-07-22T13:27:02.868Z,5.37
2018-07-22T13:29:33.003Z,5.63
2018-07-22T13:32:01.935Z,4.67
2018-07-22T13:34:31.296Z,4.97
2018-07-22T13:37:00.855Z,5.70
2018-07-22T13:39:29.536Z,5.23
2018-07-22T13:41:57.833Z,5.30
2018-07-22T13:44:26.538Z,5.20
2018-07-22T13:46:55.547Z,6.10
2018-07-22T13:49:25.603Z,5.60
2018-07-22T13:51:54.181Z,5.70
2018-07-22T13:54:25.870Z,5.20
2018-07-22T13:57:00.954Z,5.03
2018-07-22T13:59:31.220Z,4.23
2018-07-22T14:02:00.598Z,4.00
2018-07-22T14:04:29.534Z,4.50
2018-07-22T14:06:58.491Z,5.27
2018-07-22T14:09:27.001Z,4.50
2018-07-22T14:11:55.988Z,5.90
2018-07-22T14:14:24.880Z,3.77
2018-07-22T14:16:54.040Z,4.20
2018-07-22T14:19:25.047Z,3.50
2018-07-22T14:21:54.427Z,2.80
2018-07-22T14:24:23.388Z,3.87
2018-07-22T14:26:52.219Z,3.60
2018-07-22T14:29:21.774Z,3.40
2018-07-22T14:31:52.528Z,3.67
2018-07-22T14:34:20.695Z,3.53
2018-07-22T14:36:49.256Z,3.30
2018-07-22T14:39:19.970Z,4.17
2018-07-22T14:41:48.704Z,4.13
2018-07-22T14:44:18.028Z,3.73
2018-07-22T14:46:47.487Z,3.30
2018-07-22T14:49:15.964Z,3.47
2018-07-22T14:51:45.313Z,2.80
2018-07-22T14:54:14.423Z,3.40
2018-07-22T14:56:43.487Z,3.40
2018-07-22T14:59:17.531Z,3.30
2018-07-22T15:01:46.706Z,2.50
2018-07-22T15:04:16.324Z,2.57
2018-07-22T15:06:46.142Z,3.03
2018-07-22T15:09:18.097Z,3.00
2018-07-22T15:11:48.123Z,2.50
2018-07-22T15:14:18.175Z,3.10
2018-07-22T15:16:50.740Z,2.60
2018-07-22T15:19:19.408Z,2.53
2018-07-22T15:21:49.909Z,3.10
2018-07-22T15:24:18.630Z,3.10
2018-07-22T15:26:48.844Z,3.07
2018-07-22T15:29:17.396Z,2.57
2018-07-22T15:31:49.008Z,2.33
2018-07-22T15:34:17.686Z,2.97
2018-07-22T15:36:46.027Z,3.50
2018-07-22T15:39:13.980Z,3.10
2018-07-22T15:41:42.774Z,2.93
2018-07-22T15:44:11.325Z,3.70
2018-07-22T15:46:39.842Z,3.67
2018-07-22T15:49:08.875Z,3.17
2018-07-22T15:51:38.166Z,4.30
2018-07-22T15:54:06.908Z,4.50
2018-07-22T15:56:36.127Z,4.40
2018-07-22T15:59:06.692Z,5.47
2018-07-22T16:01:36.510Z,4.70
2018-07-22T16:04:07.169Z,4.63
2018-07-22T16:06:35.987Z,4.57
2018-07-22T16:09:08.767Z,5.07
2018-07-22T16:11:37.043Z,4.07
2018-07-22T16:14:07.957Z,4.87
2018-07-22T16:16:37.737Z,4.60
2018-07-22T16:19:07.994Z,4.10
2018-07-22T16:21:38.166Z,3.43
2018-07-22T16:24:06.839Z,3.70
2018-07-22T16:26:36.462Z,4.17
2018-07-22T16:29:05.280Z,3.53
2018-07-22T16:31:34.699Z,4.23
2018-07-22T16:34:03.796Z,2.23
2018-07-22T16:36:34.911Z,3.07
2018-07-22T16:39:06.922Z,3.40
2018-07-22T16:41:38.399Z,3.03
2018-07-22T16:44:07.121Z,3.07
2018-07-22T16:46:35.779Z,2.70
2018-07-22T16:49:04.382Z,2.70
2018-07-22T16:51:36.662Z,2.70
2018-07-22T16:54:05.515Z,3.17
2018-07-22T16:56:35.262Z,3.00
2018-07-22T16:59:03.794Z,3.67
2018-07-22T17:01:36.761Z,2.70
2018-07-22T17:04:10.856Z,2.10
2018-07-22T17:06:40.084Z,2.37
2018-07-22T17:09:10.165Z,2.37
2018-07-22T17:11:39.914Z,2.53
2018-07-22T17:14:08.630Z,2.63
2018-07-22T17:16:37.810Z,1.90
2018-07-22T17:19:08.372Z,2.80
2018-07-22T17:21:37.110Z,2.50
2018-07-22T17:24:05.813Z,1.83
2018-07-22T17:26:34.035Z,2.63
2018-07-22T17:29:02.683Z,2.33
2018-07-22T17:31:31.924Z,2.77
2018-07-22T17:34:00.203Z,2.50
2018-07-22T17:36:29.384Z,3.33
2018-07-22T17:39:00.591Z,2.60
2018-07-22T17:41:33.709Z,2.80
2018-07-22T17:44:01.968Z,3.17
2018-07-22T17:46:32.027Z,2.67
2018-07-22T17:49:04.470Z,2.47
2018-07-22T17:51:33.146Z,2.70
2018-07-22T17:54:01.385Z,2.40
2018-07-22T17:56:31.867Z,2.67
2018-07-22T17:59:02.383Z,2.30
2018-07-22T18:01:32.027Z,2.27
2018-07-22T18:04:04.015Z,2.47
2018-07-22T18:06:34.893Z,2.20
2018-07-22T18:09:07.815Z,2.30
2018-07-22T18:11:36.086Z,2.67
2018-07-22T18:14:04.649Z,2.30
2018-07-22T18:16:34.947Z,2.30
2018-07-22T18:19:04.050Z,2.50
2018-07-22T18:21:32.385Z,2.60
2018-07-22T18:24:02.717Z,2.70
2018-07-22T18:26:33.439Z,2.93
2018-07-22T18:29:01.895Z,2.87
2018-07-22T18:31:31.775Z,2.90
2018-07-22T18:34:00.997Z,2.93
2018-07-22T18:36:29.905Z,2.20
2018-07-22T18:39:00.907Z,2.73
2018-07-22T18:41:29.836Z,3.10
2018-07-22T18:43:59.296Z,2.97
2018-07-22T18:46:30.558Z,2.30
2018-07-22T18:48:59.476Z,3.33
2018-07-22T18:51:29.974Z,2.40
2018-07-22T18:53:59.629Z,2.87
2018-07-22T18:56:28.445Z,2.80
2018-07-22T18:58:58.518Z,3.07
2018-07-22T19:01:27.342Z,2.40
2018-07-22T19:03:56.626Z,3.10
2018-07-22T19:06:25.611Z,4.63
2018-07-22T19:09:01.730Z,2.70
2018-07-22T19:11:31.007Z,3.00
2018-07-22T19:13:59.923Z,3.33
2018-07-22T19:16:28.478Z,3.43
2018-07-22T19:18:58.130Z,3.37
2018-07-22T19:21:26.783Z,3.90
2018-07-22T19:23:56.418Z,3.73
2018-07-22T19:26:26.539Z,3.33
2018-07-22T19:28:55.842Z,3.20
2018-07-22T19:31:24.942Z,3.27
2018-07-22T19:33:54.082Z,3.83
2018-07-22T19:36:22.479Z,3.53
2018-07-22T19:38:51.180Z,3.97
2018-07-22T19:41:23.762Z,3.63
2018-07-22T19:43:53.443Z,4.20
2018-07-22T19:46:21.917Z,3.90
2018-07-22T19:48:51.339Z,4.33
2018-07-22T19:51:21.860Z,4.20
2018-07-22T19:53:51.352Z,5.17
2018-07-22T19:56:20.526Z,4.80
2018-07-22T19:58:50.680Z,5.63
2018-07-22T20:01:36.686Z,4.93
2018-07-22T20:04:09.010Z,5.90
2018-07-22T20:06:38.080Z,5.73
2018-07-22T20:09:10.312Z,6.03
2018-07-22T20:11:38.988Z,6.50
2018-07-22T20:14:07.081Z,6.23
2018-07-22T20:16:36.513Z,6.50
2018-07-22T20:19:06.635Z,6.20
2018-07-22T20:21:38.497Z,6.50
2018-07-22T20:24:08.221Z,6.90
2018-07-22T20:26:42.117Z,6.87
2018-07-22T20:29:12.791Z,7.10
2018-07-22T20:31:41.952Z,8.33
2018-07-22T20:34:11.410Z,8.17
2018-07-22T20:36:41.896Z,7.73
2018-07-22T20:39:13.830Z,7.37
2018-07-22T20:41:43.096Z,7.77
2018-07-22T20:44:13.889Z,7.70
2018-07-22T20:46:47.149Z,6.80
2018-07-22T20:49:15.763Z,7.83
2018-07-22T20:51:43.971Z,7.90
2018-07-22T20:54:13.775Z,8.30
2018-07-22T20:56:42.520Z,8.33
2018-07-22T20:59:12.930Z,8.87
2018-07-22T21:01:42.858Z,9.03
2018-07-22T21:04:11.614Z,8.17
2018-07-22T21:06:41.648Z,9.13
2018-07-22T21:09:10.372Z,8.30
2018-07-22T21:11:50.162Z,9.33
2018-07-22T21:14:19.231Z,8.47
2018-07-22T21:16:47.943Z,7.67
2018-07-22T21:19:22.681Z,6.90
2018-07-22T21:21:52.319Z,7.90
2018-07-22T21:24:23.602Z,7.37
2018-07-22T21:26:53.010Z,7.57
2018-07-22T21:29:23.854Z,8.27
2018-07-22T21:31:52.124Z,7.77
2018-07-22T21:34:20.326Z,7.37
2018-07-22T21:36:51.442Z,7.47
2018-07-22T21:39:19.673Z,7.57
2018-07-22T21:41:48.412Z,8.13
2018-07-22T21:44:18.511Z,7.70
2018-07-22T21:46:46.718Z,9.40
2018-07-22T21:49:16.197Z,9.20
2018-07-22T21:51:45.093Z,8.93
2018-07-22T21:54:14.271Z,9.30
2018-07-22T21:56:44.718Z,9.17
2018-07-22T21:59:14.571Z,10.90
2018-07-22T22:01:43.412Z,9.63
2018-07-22T22:04:12.326Z,10.37
2018-07-22T22:06:40.558Z,11.57
2018-07-22T22:09:09.370Z,9.80
2018-07-22T22:11:37.587Z,10.70
2018-07-22T22:14:07.115Z,9.67
2018-07-22T22:16:36.091Z,8.80
2018-07-22T22:19:05.152Z,9.50
2018-07-22T22:21:33.392Z,8.97
2018-07-22T22:24:03.387Z,8.97
2018-07-22T22:26:33.293Z,8.60
2018-07-22T22:29:02.363Z,8.27
2018-07-22T22:31:31.411Z,7.93
2018-07-22T22:33:59.618Z,8.67
2018-07-22T22:36:30.042Z,7.27
2018-07-22T22:39:00.050Z,8.10
2018-07-22T22:41:28.064Z,7.90
2018-07-22T22:43:57.271Z,7.60
2018-07-22T22:46:27.302Z,8.93
2018-07-22T22:48:58.331Z,10.73
2018-07-22T22:51:26.740Z,8.80
2018-07-22T22:53:55.575Z,8.60
2018-07-22T22:56:24.094Z,9.83
2018-07-22T22:59:06.762Z,8.20
2018-07-22T23:01:37.348Z,8.43
2018-07-22T23:04:06.040Z,9.20
2018-07-22T23:06:35.168Z,8.37
2018-07-22T23:09:05.016Z,9.90
2018-07-22T23:11:35.433Z,7.73
2018-07-22T23:14:04.775Z,8.37
2018-07-22T23:16:35.198Z,8.77
2018-07-22T23:19:04.094Z,10.77
2018-07-22T23:21:39.963Z,9.23
2018-07-22T23:24:09.719Z,10.17
2018-07-22T23:26:37.907Z,9.37
2018-07-22T23:29:06.902Z,9.30
2018-07-22T23:31:36.003Z,9.50
2018-07-22T23:34:04.394Z,8.80
2018-07-22T23:36:32.910Z,10.47
2018-07-22T23:39:03.027Z,10.53
2018-07-22T23:41:31.963Z,10.13
2018-07-22T23:44:01.270Z,9.10
2018-07-22T23:46:31.003Z,8.27
2018-07-22T23:48:59.666Z,9.30
2018-07-22T23:51:28.240Z,8.70
2018-07-22T23:54:00.951Z,9.50
2018-07-22T23:56:29.427Z,8.50
2018-07-22T23:58:58.863Z,8.53
